sensor_id;sensor_type;location;lat;lon;timestamp;P1;durP1;ratioP1;P2;durP2;ratioP2
8859;SDS011;4466;50.948;4.832;2023-08-21T00:00:05;7.82;;;2.35;;
8859;SDS011;4466;50.948;4.832;2023-08-21T00:02:31;6.55;;;1.98;;
8859;SDS011;4466;50.948;4.832;2023-08-21T00:04:56;5.18;;;1.90;;
8859;SDS011;4466;50.948;4.832;2023-08-21T00:07:22;6.85;;;1.85;;
8859;SDS011;4466;50.948;4.832;2023-08-21T00:09:48;7.82;;;1.85;;
8859;SDS011;4466;50.948;4.832;2023-08-21T00:12:13;4.15;;;1.90;;
8859;SDS011;4466;50.948;4.832;2023-08-21T00:14:39;7.35;;;2.15;;
8859;SDS011;4466;50.948;4.832;2023-08-21T00:17:05;5.38;;;2.25;;
8859;SDS011;4466;50.948;4.832;2023-08-21T00:19:31;5.07;;;2.00;;
8859;SDS011;4466;50.948;4.832;2023-08-21T00:21:57;3.47;;;1.67;;
8859;SDS011;4466;50.948;4.832;2023-08-21T00:24:22;5.28;;;1.60;;
8859;SDS011;4466;50.948;4.832;2023-08-21T00:26:48;3.10;;;1.63;;
8859;SDS011;4466;50.948;4.832;2023-08-21T00:29:14;7.15;;;2.05;;
8859;SDS011;4466;50.948;4.832;2023-08-21T00:31:39;6.70;;;2.17;;
8859;SDS011;4466;50.948;4.832;2023-08-21T00:34:05;5.57;;;1.60;;
8859;SDS011;4466;50.948;4.832;2023-08-21T00:36:31;6.10;;;1.98;;
8859;SDS011;4466;50.948;4.832;2023-08-21T00:38:56;9.48;;;1.85;;
8859;SDS011;4466;50.948;4.832;2023-08-21T00:41:22;7.55;;;1.92;;
8859;SDS011;4466;50.948;4.832;2023-08-21T00:43:49;6.38;;;2.10;;
8859;SDS011;4466;50.948;4.832;2023-08-21T00:46:14;6.35;;;1.90;;
8859;SDS011;4466;50.948;4.832;2023-08-21T00:48:41;4.15;;;1.80;;
8859;SDS011;4466;50.948;4.832;2023-08-21T00:51:07;7.55;;;2.20;;
8859;SDS011;4466;50.948;4.832;2023-08-21T00:53:33;6.35;;;2.00;;
8859;SDS011;4466;50.948;4.832;2023-08-21T00:55:59;7.60;;;1.77;;
8859;SDS011;4466;50.948;4.832;2023-08-21T00:58:25;5.05;;;1.90;;
8859;SDS011;4466;50.948;4.832;2023-08-21T01:00:51;9.00;;;2.13;;
8859;SDS011;4466;50.948;4.832;2023-08-21T01:03:17;5.07;;;2.03;;
8859;SDS011;4466;50.948;4.832;2023-08-21T01:05:43;6.75;;;2.00;;
8859;SDS011;4466;50.948;4.832;2023-08-21T01:08:29;6.57;;;2.28;;
8859;SDS011;4466;50.948;4.832;2023-08-21T01:11:08;7.50;;;2.35;;
8859;SDS011;4466;50.948;4.832;2023-08-21T01:16:16;6.13;;;2.00;;
8859;SDS011;4466;50.948;4.832;2023-08-21T01:18:42;6.35;;;2.40;;
8859;SDS011;4466;50.948;4.832;2023-08-21T01:21:09;5.63;;;1.85;;
8859;SDS011;4466;50.948;4.832;2023-08-21T01:23:37;5.93;;;2.00;;
8859;SDS011;4466;50.948;4.832;2023-08-21T01:26:03;5.93;;;2.22;;
8859;SDS011;4466;50.948;4.832;2023-08-21T01:28:30;7.18;;;2.25;;
8859;SDS011;4466;50.948;4.832;2023-08-21T01:31:01;8.25;;;2.30;;
8859;SDS011;4466;50.948;4.832;2023-08-21T01:33:33;6.68;;;1.90;;
8859;SDS011;4466;50.948;4.832;2023-08-21T01:36:02;9.68;;;2.55;;
8859;SDS011;4466;50.948;4.832;2023-08-21T01:38:30;5.78;;;2.00;;
8859;SDS011;4466;50.948;4.832;2023-08-21T01:40:57;5.95;;;2.30;;
8859;SDS011;4466;50.948;4.832;2023-08-21T01:43:23;4.88;;;1.88;;
8859;SDS011;4466;50.948;4.832;2023-08-21T01:45:49;7.30;;;2.08;;
8859;SDS011;4466;50.948;4.832;2023-08-21T01:48:15;9.10;;;2.30;;
8859;SDS011;4466;50.948;4.832;2023-08-21T01:50:40;6.57;;;2.03;;
8859;SDS011;4466;50.948;4.832;2023-08-21T01:53:06;6.80;;;2.58;;
8859;SDS011;4466;50.948;4.832;2023-08-21T01:55:32;4.95;;;2.00;;
8859;SDS011;4466;50.948;4.832;2023-08-21T01:57:57;6.40;;;2.15;;
8859;SDS011;4466;50.948;4.832;2023-08-21T02:00:23;3.55;;;1.70;;
8859;SDS011;4466;50.948;4.832;2023-08-21T02:02:48;4.15;;;1.92;;
8859;SDS011;4466;50.948;4.832;2023-08-21T02:05:14;7.35;;;2.00;;
8859;SDS011;4466;50.948;4.832;2023-08-21T02:07:40;7.70;;;2.40;;
8859;SDS011;4466;50.948;4.832;2023-08-21T02:10:05;5.43;;;2.45;;
8859;SDS011;4466;50.948;4.832;2023-08-21T02:12:32;10.10;;;2.20;;
8859;SDS011;4466;50.948;4.832;2023-08-21T02:14:57;9.32;;;2.58;;
8859;SDS011;4466;50.948;4.832;2023-08-21T02:17:26;6.32;;;2.10;;
8859;SDS011;4466;50.948;4.832;2023-08-21T02:19:51;7.63;;;2.30;;
8859;SDS011;4466;50.948;4.832;2023-08-21T02:22:17;7.85;;;2.25;;
8859;SDS011;4466;50.948;4.832;2023-08-21T02:24:43;9.05;;;2.22;;
8859;SDS011;4466;50.948;4.832;2023-08-21T02:27:08;6.40;;;2.00;;
8859;SDS011;4466;50.948;4.832;2023-08-21T02:29:34;8.43;;;2.10;;
8859;SDS011;4466;50.948;4.832;2023-08-21T02:32:00;8.27;;;2.38;;
8859;SDS011;4466;50.948;4.832;2023-08-21T02:34:25;6.53;;;2.20;;
8859;SDS011;4466;50.948;4.832;2023-08-21T02:36:51;5.75;;;2.03;;
8859;SDS011;4466;50.948;4.832;2023-08-21T02:39:17;4.70;;;1.65;;
8859;SDS011;4466;50.948;4.832;2023-08-21T02:41:43;5.18;;;2.08;;
8859;SDS011;4466;50.948;4.832;2023-08-21T02:44:08;5.53;;;2.17;;
8859;SDS011;4466;50.948;4.832;2023-08-21T02:46:34;4.93;;;2.05;;
8859;SDS011;4466;50.948;4.832;2023-08-21T02:49:01;9.18;;;1.98;;
8859;SDS011;4466;50.948;4.832;2023-08-21T02:51:27;6.07;;;2.10;;
8859;SDS011;4466;50.948;4.832;2023-08-21T02:53:52;5.63;;;1.92;;
8859;SDS011;4466;50.948;4.832;2023-08-21T02:56:18;7.88;;;2.13;;
8859;SDS011;4466;50.948;4.832;2023-08-21T02:58:44;5.28;;;2.28;;
8859;SDS011;4466;50.948;4.832;2023-08-21T03:01:10;5.32;;;2.20;;
8859;SDS011;4466;50.948;4.832;2023-08-21T03:03:35;6.50;;;2.10;;
8859;SDS011;4466;50.948;4.832;2023-08-21T03:06:01;6.82;;;2.20;;
8859;SDS011;4466;50.948;4.832;2023-08-21T03:08:27;5.57;;;2.17;;
8859;SDS011;4466;50.948;4.832;2023-08-21T03:10:53;6.25;;;2.20;;
8859;SDS011;4466;50.948;4.832;2023-08-21T03:13:18;4.93;;;2.50;;
8859;SDS011;4466;50.948;4.832;2023-08-21T03:15:44;4.88;;;1.73;;
8859;SDS011;4466;50.948;4.832;2023-08-21T03:18:10;5.93;;;2.20;;
8859;SDS011;4466;50.948;4.832;2023-08-21T03:20:36;4.65;;;2.05;;
8859;SDS011;4466;50.948;4.832;2023-08-21T03:23:01;7.95;;;2.35;;
8859;SDS011;4466;50.948;4.832;2023-08-21T03:25:27;9.90;;;2.40;;
8859;SDS011;4466;50.948;4.832;2023-08-21T03:27:53;4.38;;;1.73;;
8859;SDS011;4466;50.948;4.832;2023-08-21T03:30:18;5.70;;;2.10;;
8859;SDS011;4466;50.948;4.832;2023-08-21T03:32:44;5.93;;;2.25;;
8859;SDS011;4466;50.948;4.832;2023-08-21T03:35:10;5.03;;;2.20;;
8859;SDS011;4466;50.948;4.832;2023-08-21T03:37:36;4.82;;;1.80;;
8859;SDS011;4466;50.948;4.832;2023-08-21T03:40:02;5.65;;;2.10;;
8859;SDS011;4466;50.948;4.832;2023-08-21T03:42:28;6.03;;;2.17;;
8859;SDS011;4466;50.948;4.832;2023-08-21T03:44:54;7.30;;;2.42;;
8859;SDS011;4466;50.948;4.832;2023-08-21T03:47:20;6.45;;;1.85;;
8859;SDS011;4466;50.948;4.832;2023-08-21T03:49:46;5.25;;;1.98;;
8859;SDS011;4466;50.948;4.832;2023-08-21T03:52:13;5.55;;;1.83;;
8859;SDS011;4466;50.948;4.832;2023-08-21T03:54:39;5.40;;;1.88;;
8859;SDS011;4466;50.948;4.832;2023-08-21T03:57:05;4.55;;;1.92;;
8859;SDS011;4466;50.948;4.832;2023-08-21T03:59:30;4.70;;;1.88;;
8859;SDS011;4466;50.948;4.832;2023-08-21T04:01:56;4.13;;;2.05;;
8859;SDS011;4466;50.948;4.832;2023-08-21T04:04:21;6.00;;;2.30;;
8859;SDS011;4466;50.948;4.832;2023-08-21T04:06:47;10.32;;;2.50;;
8859;SDS011;4466;50.948;4.832;2023-08-21T04:09:13;5.05;;;1.90;;
8859;SDS011;4466;50.948;4.832;2023-08-21T04:11:38;6.72;;;2.30;;
8859;SDS011;4466;50.948;4.832;2023-08-21T04:14:04;5.40;;;2.17;;
8859;SDS011;4466;50.948;4.832;2023-08-21T04:16:30;7.05;;;2.20;;
8859;SDS011;4466;50.948;4.832;2023-08-21T04:18:56;5.82;;;2.38;;
8859;SDS011;4466;50.948;4.832;2023-08-21T04:21:22;5.88;;;2.15;;
8859;SDS011;4466;50.948;4.832;2023-08-21T04:23:47;6.25;;;2.22;;
8859;SDS011;4466;50.948;4.832;2023-08-21T04:26:13;6.70;;;2.30;;
8859;SDS011;4466;50.948;4.832;2023-08-21T04:28:39;4.63;;;2.00;;
8859;SDS011;4466;50.948;4.832;2023-08-21T04:31:05;3.65;;;1.95;;
8859;SDS011;4466;50.948;4.832;2023-08-21T04:33:31;7.35;;;1.80;;
8859;SDS011;4466;50.948;4.832;2023-08-21T04:35:57;6.97;;;2.10;;
8859;SDS011;4466;50.948;4.832;2023-08-21T04:38:23;4.70;;;1.90;;
8859;SDS011;4466;50.948;4.832;2023-08-21T04:40:48;5.03;;;2.20;;
8859;SDS011;4466;50.948;4.832;2023-08-21T04:43:14;4.60;;;1.90;;
8859;SDS011;4466;50.948;4.832;2023-08-21T04:45:49;5.65;;;1.95;;
8859;SDS011;4466;50.948;4.832;2023-08-21T04:48:15;3.97;;;1.83;;
8859;SDS011;4466;50.948;4.832;2023-08-21T04:50:41;16.25;;;2.00;;
8859;SDS011;4466;50.948;4.832;2023-08-21T04:53:07;6.90;;;2.40;;
8859;SDS011;4466;50.948;4.832;2023-08-21T04:55:33;6.03;;;2.28;;
8859;SDS011;4466;50.948;4.832;2023-08-21T04:57:59;8.10;;;2.15;;
8859;SDS011;4466;50.948;4.832;2023-08-21T05:00:24;4.32;;;1.65;;
8859;SDS011;4466;50.948;4.832;2023-08-21T05:02:50;3.88;;;1.92;;
8859;SDS011;4466;50.948;4.832;2023-08-21T05:05:16;5.20;;;2.15;;
8859;SDS011;4466;50.948;4.832;2023-08-21T05:07:41;6.20;;;2.25;;
8859;SDS011;4466;50.948;4.832;2023-08-21T05:10:07;6.88;;;2.42;;
8859;SDS011;4466;50.948;4.832;2023-08-21T05:12:33;5.50;;;2.00;;
8859;SDS011;4466;50.948;4.832;2023-08-21T05:14:59;2.63;;;1.60;;
8859;SDS011;4466;50.948;4.832;2023-08-21T05:17:24;3.55;;;1.95;;
8859;SDS011;4466;50.948;4.832;2023-08-21T05:19:51;4.93;;;2.20;;
8859;SDS011;4466;50.948;4.832;2023-08-21T05:22:17;5.90;;;2.05;;
8859;SDS011;4466;50.948;4.832;2023-08-21T05:24:43;5.38;;;2.13;;
8859;SDS011;4466;50.948;4.832;2023-08-21T05:27:08;5.15;;;1.95;;
8859;SDS011;4466;50.948;4.832;2023-08-21T05:29:34;7.47;;;2.13;;
8859;SDS011;4466;50.948;4.832;2023-08-21T05:32:00;6.60;;;2.05;;
8859;SDS011;4466;50.948;4.832;2023-08-21T05:34:25;5.57;;;2.10;;
8859;SDS011;4466;50.948;4.832;2023-08-21T05:36:51;8.70;;;2.15;;
8859;SDS011;4466;50.948;4.832;2023-08-21T05:39:19;9.60;;;2.08;;
8859;SDS011;4466;50.948;4.832;2023-08-21T05:41:45;6.13;;;2.38;;
8859;SDS011;4466;50.948;4.832;2023-08-21T05:44:11;6.20;;;2.40;;
8859;SDS011;4466;50.948;4.832;2023-08-21T05:46:36;4.93;;;2.28;;
8859;SDS011;4466;50.948;4.832;2023-08-21T05:49:03;5.95;;;2.72;;
8859;SDS011;4466;50.948;4.832;2023-08-21T05:51:28;5.13;;;2.00;;
8859;SDS011;4466;50.948;4.832;2023-08-21T05:53:54;7.25;;;2.20;;
8859;SDS011;4466;50.948;4.832;2023-08-21T05:56:20;8.05;;;2.30;;
8859;SDS011;4466;50.948;4.832;2023-08-21T05:58:46;5.53;;;2.30;;
8859;SDS011;4466;50.948;4.832;2023-08-21T06:01:12;4.22;;;2.40;;
8859;SDS011;4466;50.948;4.832;2023-08-21T06:03:38;5.60;;;2.50;;
8859;SDS011;4466;50.948;4.832;2023-08-21T06:06:03;7.25;;;2.33;;
8859;SDS011;4466;50.948;4.832;2023-08-21T06:08:30;7.05;;;2.72;;
8859;SDS011;4466;50.948;4.832;2023-08-21T06:10:55;6.65;;;2.80;;
8859;SDS011;4466;50.948;4.832;2023-08-21T06:13:21;6.78;;;2.50;;
8859;SDS011;4466;50.948;4.832;2023-08-21T06:15:47;7.30;;;2.75;;
8859;SDS011;4466;50.948;4.832;2023-08-21T06:18:13;6.97;;;2.70;;
8859;SDS011;4466;50.948;4.832;2023-08-21T06:20:41;8.90;;;2.35;;
8859;SDS011;4466;50.948;4.832;2023-08-21T06:23:08;5.93;;;3.00;;
8859;SDS011;4466;50.948;4.832;2023-08-21T06:25:34;7.88;;;3.03;;
8859;SDS011;4466;50.948;4.832;2023-08-21T06:28:00;12.30;;;3.50;;
8859;SDS011;4466;50.948;4.832;2023-08-21T06:30:26;7.85;;;3.38;;
8859;SDS011;4466;50.948;4.832;2023-08-21T06:32:52;7.60;;;3.20;;
8859;SDS011;4466;50.948;4.832;2023-08-21T06:35:17;8.20;;;3.20;;
8859;SDS011;4466;50.948;4.832;2023-08-21T06:37:43;10.43;;;3.30;;
8859;SDS011;4466;50.948;4.832;2023-08-21T06:40:09;8.35;;;3.58;;
8859;SDS011;4466;50.948;4.832;2023-08-21T06:42:36;7.65;;;3.30;;
8859;SDS011;4466;50.948;4.832;2023-08-21T06:45:02;7.38;;;3.40;;
8859;SDS011;4466;50.948;4.832;2023-08-21T06:47:31;7.97;;;3.08;;
8859;SDS011;4466;50.948;4.832;2023-08-21T06:49:57;9.48;;;3.65;;
8859;SDS011;4466;50.948;4.832;2023-08-21T06:52:23;9.57;;;3.75;;
8859;SDS011;4466;50.948;4.832;2023-08-21T06:54:48;9.13;;;3.40;;
8859;SDS011;4466;50.948;4.832;2023-08-21T06:57:14;9.00;;;3.45;;
8859;SDS011;4466;50.948;4.832;2023-08-21T06:59:40;8.18;;;3.55;;
8859;SDS011;4466;50.948;4.832;2023-08-21T07:02:05;9.55;;;3.15;;
8859;SDS011;4466;50.948;4.832;2023-08-21T07:04:31;6.07;;;2.45;;
8859;SDS011;4466;50.948;4.832;2023-08-21T07:06:58;7.95;;;2.63;;
8859;SDS011;4466;50.948;4.832;2023-08-21T07:09:24;5.68;;;2.45;;
8859;SDS011;4466;50.948;4.832;2023-08-21T07:11:50;6.95;;;2.60;;
8859;SDS011;4466;50.948;4.832;2023-08-21T07:14:15;7.63;;;2.70;;
8859;SDS011;4466;50.948;4.832;2023-08-21T07:16:42;9.07;;;2.95;;
8859;SDS011;4466;50.948;4.832;2023-08-21T07:19:08;7.00;;;2.63;;
8859;SDS011;4466;50.948;4.832;2023-08-21T07:21:33;9.13;;;3.17;;
8859;SDS011;4466;50.948;4.832;2023-08-21T07:24:02;7.78;;;2.60;;
8859;SDS011;4466;50.948;4.832;2023-08-21T07:26:28;6.82;;;2.63;;
8859;SDS011;4466;50.948;4.832;2023-08-21T07:28:53;12.68;;;2.95;;
8859;SDS011;4466;50.948;4.832;2023-08-21T07:31:19;6.88;;;2.60;;
8859;SDS011;4466;50.948;4.832;2023-08-21T07:33:45;9.60;;;2.80;;
8859;SDS011;4466;50.948;4.832;2023-08-21T07:36:10;9.02;;;2.53;;
8859;SDS011;4466;50.948;4.832;2023-08-21T07:38:41;9.75;;;2.90;;
8859;SDS011;4466;50.948;4.832;2023-08-21T07:41:10;7.65;;;2.80;;
8859;SDS011;4466;50.948;4.832;2023-08-21T07:43:37;7.05;;;2.38;;
8859;SDS011;4466;50.948;4.832;2023-08-21T07:46:05;6.25;;;2.20;;
8859;SDS011;4466;50.948;4.832;2023-08-21T07:48:32;7.15;;;2.45;;
8859;SDS011;4466;50.948;4.832;2023-08-21T07:50:58;10.00;;;2.60;;
8859;SDS011;4466;50.948;4.832;2023-08-21T07:53:24;7.50;;;2.40;;
8859;SDS011;4466;50.948;4.832;2023-08-21T07:55:50;6.68;;;2.40;;
8859;SDS011;4466;50.948;4.832;2023-08-21T07:58:16;6.45;;;2.42;;
8859;SDS011;4466;50.948;4.832;2023-08-21T08:00:42;9.60;;;2.58;;
8859;SDS011;4466;50.948;4.832;2023-08-21T08:03:08;7.00;;;2.35;;
8859;SDS011;4466;50.948;4.832;2023-08-21T08:05:35;6.50;;;2.22;;
8859;SDS011;4466;50.948;4.832;2023-08-21T08:08:01;7.70;;;2.28;;
8859;SDS011;4466;50.948;4.832;2023-08-21T08:10:27;7.03;;;2.17;;
8859;SDS011;4466;50.948;4.832;2023-08-21T08:12:53;9.00;;;2.47;;
8859;SDS011;4466;50.948;4.832;2023-08-21T08:15:19;9.10;;;2.60;;
8859;SDS011;4466;50.948;4.832;2023-08-21T08:17:45;7.45;;;2.60;;
8859;SDS011;4466;50.948;4.832;2023-08-21T08:20:14;5.90;;;2.08;;
8859;SDS011;4466;50.948;4.832;2023-08-21T08:22:40;5.43;;;2.03;;
8859;SDS011;4466;50.948;4.832;2023-08-21T08:25:06;7.65;;;2.33;;
8859;SDS011;4466;50.948;4.832;2023-08-21T08:27:32;7.05;;;2.15;;
8859;SDS011;4466;50.948;4.832;2023-08-21T08:29:58;10.32;;;2.58;;
8859;SDS011;4466;50.948;4.832;2023-08-21T08:32:24;7.30;;;2.03;;
8859;SDS011;4466;50.948;4.832;2023-08-21T08:34:50;10.95;;;2.45;;
8859;SDS011;4466;50.948;4.832;2023-08-21T08:37:16;5.75;;;2.15;;
8859;SDS011;4466;50.948;4.832;2023-08-21T08:39:42;7.70;;;2.25;;
8859;SDS011;4466;50.948;4.832;2023-08-21T08:42:08;8.98;;;2.70;;
8859;SDS011;4466;50.948;4.832;2023-08-21T08:44:34;5.82;;;2.47;;
8859;SDS011;4466;50.948;4.832;2023-08-21T08:47:01;9.23;;;2.17;;
8859;SDS011;4466;50.948;4.832;2023-08-21T08:49:27;8.45;;;2.33;;
8859;SDS011;4466;50.948;4.832;2023-08-21T08:51:53;6.30;;;2.30;;
8859;SDS011;4466;50.948;4.832;2023-08-21T08:54:20;6.75;;;2.40;;
8859;SDS011;4466;50.948;4.832;2023-08-21T08:56:47;8.05;;;2.35;;
8859;SDS011;4466;50.948;4.832;2023-08-21T08:59:13;5.93;;;1.80;;
8859;SDS011;4466;50.948;4.832;2023-08-21T09:01:40;4.43;;;1.67;;
8859;SDS011;4466;50.948;4.832;2023-08-21T09:04:06;4.70;;;1.70;;
8859;SDS011;4466;50.948;4.832;2023-08-21T09:06:32;6.22;;;1.95;;
8859;SDS011;4466;50.948;4.832;2023-08-21T09:08:58;6.43;;;1.80;;
8859;SDS011;4466;50.948;4.832;2023-08-21T09:11:24;9.88;;;2.08;;
8859;SDS011;4466;50.948;4.832;2023-08-21T09:13:51;5.57;;;1.80;;
8859;SDS011;4466;50.948;4.832;2023-08-21T09:16:17;7.13;;;2.08;;
8859;SDS011;4466;50.948;4.832;2023-08-21T09:18:50;7.68;;;1.90;;
8859;SDS011;4466;50.948;4.832;2023-08-21T09:21:22;6.18;;;2.08;;
8859;SDS011;4466;50.948;4.832;2023-08-21T09:23:50;4.85;;;1.55;;
8859;SDS011;4466;50.948;4.832;2023-08-21T09:26:21;8.45;;;1.88;;
8859;SDS011;4466;50.948;4.832;2023-08-21T09:28:47;6.57;;;1.80;;
8859;SDS011;4466;50.948;4.832;2023-08-21T09:31:14;5.00;;;1.70;;
8859;SDS011;4466;50.948;4.832;2023-08-21T09:33:40;6.95;;;1.80;;
8859;SDS011;4466;50.948;4.832;2023-08-21T09:36:05;4.05;;;1.58;;
8859;SDS011;4466;50.948;4.832;2023-08-21T09:38:33;6.57;;;2.15;;
8859;SDS011;4466;50.948;4.832;2023-08-21T09:41:00;5.13;;;1.60;;
8859;SDS011;4466;50.948;4.832;2023-08-21T09:43:26;5.70;;;1.90;;
8859;SDS011;4466;50.948;4.832;2023-08-21T09:45:52;6.70;;;1.95;;
8859;SDS011;4466;50.948;4.832;2023-08-21T09:48:23;4.88;;;1.67;;
8859;SDS011;4466;50.948;4.832;2023-08-21T09:50:52;9.90;;;2.03;;
8859;SDS011;4466;50.948;4.832;2023-08-21T09:53:19;6.65;;;2.00;;
8859;SDS011;4466;50.948;4.832;2023-08-21T09:55:47;7.07;;;1.80;;
8859;SDS011;4466;50.948;4.832;2023-08-21T09:58:17;5.70;;;1.92;;
8859;SDS011;4466;50.948;4.832;2023-08-21T10:00:44;4.55;;;1.80;;
8859;SDS011;4466;50.948;4.832;2023-08-21T10:03:13;7.03;;;1.75;;
8859;SDS011;4466;50.948;4.832;2023-08-21T10:05:44;6.00;;;1.70;;
8859;SDS011;4466;50.948;4.832;2023-08-21T10:08:12;4.57;;;1.88;;
8859;SDS011;4466;50.948;4.832;2023-08-21T10:10:40;6.30;;;1.98;;
8859;SDS011;4466;50.948;4.832;2023-08-21T10:13:07;3.65;;;1.67;;
8859;SDS011;4466;50.948;4.832;2023-08-21T10:15:33;5.68;;;1.77;;
8859;SDS011;4466;50.948;4.832;2023-08-21T10:18:20;5.82;;;1.70;;
8859;SDS011;4466;50.948;4.832;2023-08-21T10:20:50;5.97;;;1.83;;
8859;SDS011;4466;50.948;4.832;2023-08-21T10:23:24;5.13;;;1.88;;
8859;SDS011;4466;50.948;4.832;2023-08-21T10:25:58;7.07;;;1.90;;
8859;SDS011;4466;50.948;4.832;2023-08-21T10:28:25;6.20;;;2.13;;
8859;SDS011;4466;50.948;4.832;2023-08-21T10:31:35;4.13;;;1.40;;
8859;SDS011;4466;50.948;4.832;2023-08-21T10:34:06;3.42;;;1.50;;
8859;SDS011;4466;50.948;4.832;2023-08-21T10:39:28;4.97;;;1.75;;
8859;SDS011;4466;50.948;4.832;2023-08-21T10:44:34;3.50;;;1.70;;
8859;SDS011;4466;50.948;4.832;2023-08-21T10:47:21;4.22;;;1.40;;
8859;SDS011;4466;50.948;4.832;2023-08-21T10:50:06;5.40;;;1.50;;
8859;SDS011;4466;50.948;4.832;2023-08-21T10:52:40;5.93;;;1.63;;
8859;SDS011;4466;50.948;4.832;2023-08-21T10:55:08;5.25;;;1.42;;
8859;SDS011;4466;50.948;4.832;2023-08-21T10:57:35;4.50;;;1.83;;
8859;SDS011;4466;50.948;4.832;2023-08-21T11:00:02;4.93;;;1.60;;
8859;SDS011;4466;50.948;4.832;2023-08-21T11:02:34;4.65;;;1.65;;
8859;SDS011;4466;50.948;4.832;2023-08-21T11:05:01;4.18;;;1.70;;
8859;SDS011;4466;50.948;4.832;2023-08-21T11:07:30;3.70;;;1.42;;
8859;SDS011;4466;50.948;4.832;2023-08-21T11:10:03;6.07;;;2.05;;
8859;SDS011;4466;50.948;4.832;2023-08-21T11:12:29;4.45;;;1.75;;
8859;SDS011;4466;50.948;4.832;2023-08-21T11:14:54;5.72;;;1.90;;
8859;SDS011;4466;50.948;4.832;2023-08-21T11:17:20;2.97;;;1.30;;
8859;SDS011;4466;50.948;4.832;2023-08-21T11:19:48;5.18;;;1.88;;
8859;SDS011;4466;50.948;4.832;2023-08-21T11:22:15;5.20;;;1.52;;
8859;SDS011;4466;50.948;4.832;2023-08-21T11:24:41;4.28;;;1.60;;
8859;SDS011;4466;50.948;4.832;2023-08-21T11:27:10;7.97;;;1.73;;
8859;SDS011;4466;50.948;4.832;2023-08-21T11:29:41;8.05;;;1.80;;
8859;SDS011;4466;50.948;4.832;2023-08-21T11:32:08;4.68;;;1.65;;
8859;SDS011;4466;50.948;4.832;2023-08-21T11:34:35;5.45;;;1.88;;
8859;SDS011;4466;50.948;4.832;2023-08-21T11:37:01;6.60;;;2.00;;
8859;SDS011;4466;50.948;4.832;2023-08-21T11:39:38;6.95;;;2.00;;
8859;SDS011;4466;50.948;4.832;2023-08-21T11:42:19;5.75;;;1.77;;
8859;SDS011;4466;50.948;4.832;2023-08-21T11:44:47;3.63;;;1.45;;
8859;SDS011;4466;50.948;4.832;2023-08-21T11:47:17;4.38;;;1.70;;
8859;SDS011;4466;50.948;4.832;2023-08-21T11:49:46;6.53;;;1.77;;
8859;SDS011;4466;50.948;4.832;2023-08-21T11:52:14;4.30;;;1.52;;
8859;SDS011;4466;50.948;4.832;2023-08-21T11:54:47;4.88;;;1.40;;
8859;SDS011;4466;50.948;4.832;2023-08-21T11:57:16;5.82;;;1.85;;
8859;SDS011;4466;50.948;4.832;2023-08-21T11:59:43;4.07;;;1.85;;
8859;SDS011;4466;50.948;4.832;2023-08-21T12:02:14;4.55;;;1.80;;
8859;SDS011;4466;50.948;4.832;2023-08-21T12:04:42;5.50;;;1.77;;
8859;SDS011;4466;50.948;4.832;2023-08-21T12:07:08;3.30;;;1.50;;
8859;SDS011;4466;50.948;4.832;2023-08-21T12:09:34;7.93;;;1.85;;
8859;SDS011;4466;50.948;4.832;2023-08-21T12:11:59;6.20;;;1.85;;
8859;SDS011;4466;50.948;4.832;2023-08-21T12:14:28;4.15;;;1.60;;
8859;SDS011;4466;50.948;4.832;2023-08-21T12:16:54;6.93;;;2.25;;
8859;SDS011;4466;50.948;4.832;2023-08-21T12:19:21;6.57;;;1.67;;
8859;SDS011;4466;50.948;4.832;2023-08-21T12:21:48;6.30;;;1.63;;
8859;SDS011;4466;50.948;4.832;2023-08-21T12:24:14;5.88;;;1.50;;
8859;SDS011;4466;50.948;4.832;2023-08-21T12:26:39;4.53;;;1.70;;
8859;SDS011;4466;50.948;4.832;2023-08-21T12:29:05;6.03;;;1.88;;
8859;SDS011;4466;50.948;4.832;2023-08-21T12:31:31;4.63;;;1.95;;
8859;SDS011;4466;50.948;4.832;2023-08-21T12:33:56;4.22;;;1.50;;
8859;SDS011;4466;50.948;4.832;2023-08-21T12:36:22;5.63;;;1.70;;
8859;SDS011;4466;50.948;4.832;2023-08-21T12:38:48;3.70;;;1.42;;
8859;SDS011;4466;50.948;4.832;2023-08-21T12:41:13;4.63;;;1.67;;
8859;SDS011;4466;50.948;4.832;2023-08-21T12:43:39;4.40;;;1.65;;
8859;SDS011;4466;50.948;4.832;2023-08-21T12:46:05;5.63;;;1.50;;
8859;SDS011;4466;50.948;4.832;2023-08-21T12:48:30;4.95;;;1.63;;
8859;SDS011;4466;50.948;4.832;2023-08-21T12:50:56;5.00;;;1.48;;
8859;SDS011;4466;50.948;4.832;2023-08-21T12:53:22;4.93;;;1.80;;
8859;SDS011;4466;50.948;4.832;2023-08-21T12:55:47;6.03;;;1.80;;
8859;SDS011;4466;50.948;4.832;2023-08-21T12:58:14;3.72;;;1.50;;
8859;SDS011;4466;50.948;4.832;2023-08-21T13:00:39;4.18;;;1.67;;
8859;SDS011;4466;50.948;4.832;2023-08-21T13:03:05;5.63;;;1.60;;
8859;SDS011;4466;50.948;4.832;2023-08-21T13:05:31;3.60;;;1.40;;
8859;SDS011;4466;50.948;4.832;2023-08-21T13:07:56;4.70;;;1.95;;
8859;SDS011;4466;50.948;4.832;2023-08-21T13:10:22;4.95;;;1.50;;
8859;SDS011;4466;50.948;4.832;2023-08-21T13:12:48;4.68;;;1.63;;
8859;SDS011;4466;50.948;4.832;2023-08-21T13:15:14;3.35;;;1.20;;
8859;SDS011;4466;50.948;4.832;2023-08-21T13:17:41;3.97;;;1.40;;
8859;SDS011;4466;50.948;4.832;2023-08-21T13:20:08;3.28;;;1.60;;
8859;SDS011;4466;50.948;4.832;2023-08-21T13:25:12;4.78;;;1.52;;
8859;SDS011;4466;50.948;4.832;2023-08-21T13:27:38;2.97;;;1.27;;
8859;SDS011;4466;50.948;4.832;2023-08-21T13:30:03;3.13;;;1.40;;
8859;SDS011;4466;50.948;4.832;2023-08-21T13:32:30;4.28;;;1.60;;
8859;SDS011;4466;50.948;4.832;2023-08-21T13:34:56;2.80;;;1.40;;
8859;SDS011;4466;50.948;4.832;2023-08-21T13:37:22;3.70;;;1.45;;
8859;SDS011;4466;50.948;4.832;2023-08-21T13:39:48;4.07;;;1.52;;
8859;SDS011;4466;50.948;4.832;2023-08-21T13:42:14;6.60;;;1.52;;
8859;SDS011;4466;50.948;4.832;2023-08-21T13:44:39;3.58;;;1.40;;
8859;SDS011;4466;50.948;4.832;2023-08-21T13:47:05;4.18;;;1.52;;
8859;SDS011;4466;50.948;4.832;2023-08-21T13:49:30;2.85;;;1.40;;
8859;SDS011;4466;50.948;4.832;2023-08-21T13:51:57;3.40;;;1.42;;
8859;SDS011;4466;50.948;4.832;2023-08-21T13:54:22;2.10;;;1.25;;
8859;SDS011;4466;50.948;4.832;2023-08-21T13:56:48;3.53;;;1.20;;
8859;SDS011;4466;50.948;4.832;2023-08-21T13:59:13;3.05;;;1.40;;
8859;SDS011;4466;50.948;4.832;2023-08-21T14:01:39;4.35;;;1.55;;
8859;SDS011;4466;50.948;4.832;2023-08-21T14:04:05;4.43;;;1.60;;
8859;SDS011;4466;50.948;4.832;2023-08-21T14:06:30;6.05;;;1.77;;
8859;SDS011;4466;50.948;4.832;2023-08-21T14:08:56;3.97;;;1.52;;
8859;SDS011;4466;50.948;4.832;2023-08-21T14:11:22;5.25;;;1.70;;
8859;SDS011;4466;50.948;4.832;2023-08-21T14:13:47;4.20;;;1.42;;
8859;SDS011;4466;50.948;4.832;2023-08-21T14:16:13;7.03;;;1.70;;
8859;SDS011;4466;50.948;4.832;2023-08-21T14:18:38;4.32;;;1.60;;
8859;SDS011;4466;50.948;4.832;2023-08-21T14:21:04;2.22;;;1.40;;
8859;SDS011;4466;50.948;4.832;2023-08-21T14:23:30;7.03;;;1.65;;
8859;SDS011;4466;50.948;4.832;2023-08-21T14:25:55;3.13;;;1.65;;
8859;SDS011;4466;50.948;4.832;2023-08-21T14:28:21;3.38;;;1.63;;
8859;SDS011;4466;50.948;4.832;2023-08-21T14:30:47;3.17;;;1.50;;
8859;SDS011;4466;50.948;4.832;2023-08-21T14:33:12;2.63;;;1.40;;
8859;SDS011;4466;50.948;4.832;2023-08-21T14:35:38;4.90;;;1.90;;
8859;SDS011;4466;50.948;4.832;2023-08-21T14:38:04;3.85;;;1.55;;
8859;SDS011;4466;50.948;4.832;2023-08-21T14:40:31;2.78;;;1.80;;
8859;SDS011;4466;50.948;4.832;2023-08-21T14:42:56;3.15;;;1.50;;
8859;SDS011;4466;50.948;4.832;2023-08-21T14:45:22;4.75;;;2.08;;
8859;SDS011;4466;50.948;4.832;2023-08-21T14:47:48;3.97;;;1.70;;
8859;SDS011;4466;50.948;4.832;2023-08-21T14:50:13;3.53;;;1.60;;
8859;SDS011;4466;50.948;4.832;2023-08-21T14:52:39;3.58;;;1.70;;
8859;SDS011;4466;50.948;4.832;2023-08-21T14:55:05;5.07;;;1.98;;
8859;SDS011;4466;50.948;4.832;2023-08-21T14:57:30;9.60;;;1.92;;
8859;SDS011;4466;50.948;4.832;2023-08-21T14:59:56;7.45;;;1.80;;
8859;SDS011;4466;50.948;4.832;2023-08-21T15:02:21;5.28;;;1.88;;
8859;SDS011;4466;50.948;4.832;2023-08-21T15:04:47;5.72;;;1.73;;
8859;SDS011;4466;50.948;4.832;2023-08-21T15:07:13;4.78;;;1.67;;
8859;SDS011;4466;50.948;4.832;2023-08-21T15:09:38;4.43;;;1.75;;
8859;SDS011;4466;50.948;4.832;2023-08-21T15:12:04;4.22;;;1.85;;
8859;SDS011;4466;50.948;4.832;2023-08-21T15:14:30;3.75;;;1.83;;
8859;SDS011;4466;50.948;4.832;2023-08-21T15:16:56;5.75;;;2.00;;
8859;SDS011;4466;50.948;4.832;2023-08-21T15:19:22;4.90;;;1.48;;
8859;SDS011;4466;50.948;4.832;2023-08-21T15:21:48;3.50;;;1.60;;